Jacksonville, FL (32257)

9:32 AM EDT on September 19, 2017 (GMT -0400)
Spanish Wells | | Change Station
Active Advisory: Coastal Flood Advisory Active Notice: Coastal Flood Advisory

Elev 26 ft 30.21 °N, 81.61 °W | Updated 34 seconds ago

Clear
Clear
79.1 °F
Feels Like 82 °F
N
0.0
Wind Variable Wind from WSW

Today
High -- | Low -- °F
--% Chance of Precip.
Yesterday
High -- | Low -- °F
Precip. -- in
Pressure 30.00 in
Visibility 10.0 miles
Clouds Few 25000 ft
Heat Index 82 °F
Dew Point 72 °F
Humidity 80%
Rainfall 0.00 in
Snow Depth Not available.
7:13 AM 7:26 PM
Waning Crescent, 1% visible
METAR KNIP 191253Z 00000KT 10SM FEW250 25/22 A3001 RMK AO2 SLP157 T02500217
Pressure 30.00 in
Visibility 10.0 miles
Clouds Few 25000 ft
Heat Index 82 °F
Dew Point 72 °F
Humidity 80%
Rainfall 0.00 in
Snow Depth Not available.
7:13 AM 7:26 PM
Waning Crescent, 1% visible
METAR KNIP 191253Z 00000KT 10SM FEW250 25/22 A3001 RMK AO2 SLP157 T02500217

Get Your Daily Forecast Email!

Thanks for signing up!

Be on the lookout for a verification email in your inbox.

You'll start receiving severe weather alerts in your inbox..

×

10-Day Weather Forecast

Almanac

Astronomy

Sep. 19, 2017 Rise Set
Actual Time
Civil Twilight
Nautical Twilight
Astronomical Twilight
Moon
Length of Visible Light
Length of Day
Tomorrow will be .
, % of the Moon is Illuminated

Today's Extremes

State Highs State Lows

Community

WunderPhotos

Category 6

Welcome to Category 6. This is the collective home for Weather Underground's featured writeups by Dr. Jeff Masters (right), Bob Henson (left), Chris Burt, and other regular contributors.

Nearby

Air Quality

  Air Quality AQ Index Pollutant
Not available.

Snow Depth

Station Depth Elevation

Earthquake Activity

City Distance Mag. Time & Date
Minimum magnitude displayed is 2.5.

Coastal Water Temperatures

Place Temperature

Stations

Nearby Weather Stations

Station Location Temp. Windchill Dew Point Humidity Wind Precip. Elev Updated Type
                   

Watches & Warnings

Coastal Flood Advisory
Issued: 3:04 AM EDT Sep. 19, 2017 – National Weather Service

... Coastal flood advisory remains in effect until 8 PM EDT
Wednesday...

* coastal flooding... minor flooding is expected to continue
along portions of the St Johns River from Jacksonville
southward through Palatka... Satsuma... and Welaka and adjacent
tributaries... especially during times of high Tide. Water
levels will be slow to recede in the St Johns River basin.

* Timing... coastal flooding will continue at least into
Wednesday and possibly through the end of the week.

* Impacts... elevated tide levels will generate minor flooding of
low areas along the St Johns River and its tributaries.

Precautionary/preparedness actions...

A coastal flood advisory indicates that higher than normal tides
will combine to generate flooding of low areas along the St Johns
River and its tributaries.